Weather at Brant (Dixon Farm) Airport

Public forecast

Using degrees Celsius for public forecast. Weather courtesy of forecast.io.

Closest aviation weather report (METAR) to Brant (Dixon Farm) Airport

Closest report is Calgary International Airport, 45.6 nm (84.5 km) NNW.

2024/05/30 03:38 (retrieved 23 minutes ago)

CYYC 300338Z 34012G20KT 20SM -SHRA BKN042CB BKN120 07/03 A2992 RMK CB5AC2 SLP149

Closest aviation forecast (TAF) to Brant (Dixon Farm) Airport

Forecast is more than 6 hours old.

Closest forecast is Edmonton (CFB Namao) Heliport, 195.1 nm (361.3 km) N.

2024/05/29 18:30 Ammendment (retrieved 10 hours ago)

TAF AMD TAF AMD CYED 292328Z 2918/3006 CNL RMK END OF FLY PROGRAM NXT FCST BY 300000Z